< < Back
Terminal Aerodrome Forecast


Current Version              Previous Versions:   1  2  3  4  5  6  7  8  9  

Terminal Aerodrome Forecast

242
FTAK31 PAJN 022300
TAFAHN
TAF
PAHN 022324Z 0300/0324 30010KT P6SM SCT120
     FM030100 31007KT P6SM SCT040 BKN080
     FM030900 30008KT P6SM BKN040 BKN080
     FM031900 30010KT P6SM VCSH BKN035 OVC080
      AMD LTD TO CLD VIS AND WIND=

Latest METAR

705
SAUS70 KWBC 030700
MTRAHN
METAR KAHN 030651Z AUTO 00000KT 10SM OVC039 13/08 A3022 RMK AO2 SLP230
T01280083


USA.gov is the U.S. government's official web portal to all federal, state and local government web resources and services.